sensor_id;sensor_type;location;lat;lon;timestamp;P1;durP1;ratioP1;P2;durP2;ratioP2
76495;SDS011;65329;52.544;4.662;2023-08-24T00:00:29;11.35;;;6.30;;
76495;SDS011;65329;52.544;4.662;2023-08-24T00:02:56;8.40;;;5.82;;
76495;SDS011;65329;52.544;4.662;2023-08-24T00:05:24;11.05;;;5.82;;
76495;SDS011;65329;52.544;4.662;2023-08-24T00:07:51;9.30;;;5.57;;
76495;SDS011;65329;52.544;4.662;2023-08-24T00:10:21;9.07;;;6.28;;
76495;SDS011;65329;52.544;4.662;2023-08-24T00:12:48;7.40;;;5.47;;
76495;SDS011;65329;52.544;4.662;2023-08-24T00:15:15;8.70;;;5.82;;
76495;SDS011;65329;52.544;4.662;2023-08-24T00:17:43;9.80;;;5.90;;
76495;SDS011;65329;52.544;4.662;2023-08-24T00:20:10;9.35;;;5.38;;
76495;SDS011;65329;52.544;4.662;2023-08-24T00:22:39;7.82;;;5.32;;
76495;SDS011;65329;52.544;4.662;2023-08-24T00:25:07;8.85;;;4.90;;
76495;SDS011;65329;52.544;4.662;2023-08-24T00:27:36;7.68;;;5.72;;
76495;SDS011;65329;52.544;4.662;2023-08-24T00:30:04;6.05;;;4.80;;
76495;SDS011;65329;52.544;4.662;2023-08-24T00:32:33;9.60;;;5.22;;
76495;SDS011;65329;52.544;4.662;2023-08-24T00:35:02;8.80;;;5.07;;
76495;SDS011;65329;52.544;4.662;2023-08-24T00:37:32;7.15;;;5.10;;
76495;SDS011;65329;52.544;4.662;2023-08-24T00:40:02;8.45;;;4.72;;
76495;SDS011;65329;52.544;4.662;2023-08-24T00:42:37;6.47;;;4.60;;
76495;SDS011;65329;52.544;4.662;2023-08-24T00:45:09;8.43;;;5.05;;
76495;SDS011;65329;52.544;4.662;2023-08-24T00:47:41;10.15;;;5.25;;
76495;SDS011;65329;52.544;4.662;2023-08-24T00:50:11;7.53;;;4.47;;
76495;SDS011;65329;52.544;4.662;2023-08-24T00:52:40;9.02;;;5.07;;
76495;SDS011;65329;52.544;4.662;2023-08-24T00:55:09;6.70;;;4.57;;
76495;SDS011;65329;52.544;4.662;2023-08-24T00:57:39;7.75;;;4.55;;
76495;SDS011;65329;52.544;4.662;2023-08-24T01:00:09;8.20;;;5.05;;
76495;SDS011;65329;52.544;4.662;2023-08-24T01:02:38;7.25;;;4.78;;
76495;SDS011;65329;52.544;4.662;2023-08-24T01:05:06;8.38;;;4.60;;
76495;SDS011;65329;52.544;4.662;2023-08-24T01:07:37;10.10;;;5.13;;
76495;SDS011;65329;52.544;4.662;2023-08-24T01:10:08;12.98;;;5.35;;
76495;SDS011;65329;52.544;4.662;2023-08-24T01:15:15;10.35;;;6.03;;
76495;SDS011;65329;52.544;4.662;2023-08-24T01:17:53;8.45;;;5.70;;
76495;SDS011;65329;52.544;4.662;2023-08-24T01:20:25;7.22;;;4.80;;
76495;SDS011;65329;52.544;4.662;2023-08-24T01:28:05;9.35;;;6.03;;
76495;SDS011;65329;52.544;4.662;2023-08-24T01:30:34;10.30;;;6.57;;
76495;SDS011;65329;52.544;4.662;2023-08-24T01:35:32;8.73;;;5.47;;
76495;SDS011;65329;52.544;4.662;2023-08-24T01:38:00;11.38;;;6.55;;
76495;SDS011;65329;52.544;4.662;2023-08-24T01:40:34;9.70;;;5.97;;
76495;SDS011;65329;52.544;4.662;2023-08-24T01:43:08;10.77;;;6.40;;
76495;SDS011;65329;52.544;4.662;2023-08-24T01:45:38;11.13;;;6.57;;
76495;SDS011;65329;52.544;4.662;2023-08-24T01:48:09;9.75;;;6.00;;
76495;SDS011;65329;52.544;4.662;2023-08-24T01:50:38;10.27;;;6.10;;
76495;SDS011;65329;52.544;4.662;2023-08-24T01:53:05;9.93;;;5.82;;
76495;SDS011;65329;52.544;4.662;2023-08-24T01:55:33;8.48;;;5.30;;
76495;SDS011;65329;52.544;4.662;2023-08-24T01:58:00;9.82;;;6.65;;
76495;SDS011;65329;52.544;4.662;2023-08-24T02:00:28;11.65;;;6.05;;
76495;SDS011;65329;52.544;4.662;2023-08-24T02:02:56;9.68;;;5.63;;
76495;SDS011;65329;52.544;4.662;2023-08-24T02:05:24;8.55;;;5.50;;
76495;SDS011;65329;52.544;4.662;2023-08-24T02:07:54;10.30;;;5.78;;
76495;SDS011;65329;52.544;4.662;2023-08-24T02:10:22;11.75;;;5.07;;
76495;SDS011;65329;52.544;4.662;2023-08-24T02:12:49;10.43;;;5.30;;
76495;SDS011;65329;52.544;4.662;2023-08-24T02:15:17;7.15;;;4.75;;
76495;SDS011;65329;52.544;4.662;2023-08-24T02:17:45;9.48;;;5.65;;
76495;SDS011;65329;52.544;4.662;2023-08-24T02:20:12;10.23;;;4.65;;
76495;SDS011;65329;52.544;4.662;2023-08-24T02:22:39;6.20;;;4.13;;
76495;SDS011;65329;52.544;4.662;2023-08-24T02:25:09;8.48;;;4.78;;
76495;SDS011;65329;52.544;4.662;2023-08-24T02:27:36;8.25;;;4.28;;
76495;SDS011;65329;52.544;4.662;2023-08-24T02:30:04;6.45;;;3.92;;
76495;SDS011;65329;52.544;4.662;2023-08-24T02:32:33;6.43;;;4.38;;
76495;SDS011;65329;52.544;4.662;2023-08-24T02:35:00;5.53;;;4.03;;
76495;SDS011;65329;52.544;4.662;2023-08-24T02:37:29;7.80;;;3.97;;
76495;SDS011;65329;52.544;4.662;2023-08-24T02:39:57;6.50;;;4.30;;
76495;SDS011;65329;52.544;4.662;2023-08-24T02:42:25;6.72;;;4.47;;
76495;SDS011;65329;52.544;4.662;2023-08-24T02:44:53;6.32;;;3.65;;
76495;SDS011;65329;52.544;4.662;2023-08-24T02:47:21;7.13;;;3.42;;
76495;SDS011;65329;52.544;4.662;2023-08-24T02:49:48;4.75;;;3.50;;
76495;SDS011;65329;52.544;4.662;2023-08-24T02:52:15;6.13;;;3.78;;
76495;SDS011;65329;52.544;4.662;2023-08-24T02:54:42;5.15;;;3.42;;
76495;SDS011;65329;52.544;4.662;2023-08-24T02:57:10;4.90;;;3.03;;
76495;SDS011;65329;52.544;4.662;2023-08-24T02:59:37;7.35;;;4.13;;
76495;SDS011;65329;52.544;4.662;2023-08-24T03:02:06;6.70;;;3.50;;
76495;SDS011;65329;52.544;4.662;2023-08-24T03:04:33;5.47;;;3.50;;
76495;SDS011;65329;52.544;4.662;2023-08-24T03:07:01;6.32;;;3.08;;
76495;SDS011;65329;52.544;4.662;2023-08-24T03:09:29;6.15;;;3.72;;
76495;SDS011;65329;52.544;4.662;2023-08-24T03:11:56;6.97;;;3.90;;
76495;SDS011;65329;52.544;4.662;2023-08-24T03:14:24;7.90;;;3.90;;
76495;SDS011;65329;52.544;4.662;2023-08-24T03:16:51;7.47;;;4.38;;
76495;SDS011;65329;52.544;4.662;2023-08-24T03:19:18;7.68;;;3.85;;
76495;SDS011;65329;52.544;4.662;2023-08-24T03:21:45;6.97;;;4.65;;
76495;SDS011;65329;52.544;4.662;2023-08-24T03:24:12;6.43;;;4.40;;
76495;SDS011;65329;52.544;4.662;2023-08-24T03:26:40;6.55;;;3.80;;
76495;SDS011;65329;52.544;4.662;2023-08-24T03:29:07;6.70;;;4.57;;
76495;SDS011;65329;52.544;4.662;2023-08-24T03:31:36;6.78;;;4.35;;
76495;SDS011;65329;52.544;4.662;2023-08-24T03:34:03;6.93;;;4.30;;
76495;SDS011;65329;52.544;4.662;2023-08-24T03:36:31;6.70;;;4.20;;
76495;SDS011;65329;52.544;4.662;2023-08-24T03:38:58;7.28;;;4.40;;
76495;SDS011;65329;52.544;4.662;2023-08-24T03:41:25;6.05;;;3.90;;
76495;SDS011;65329;52.544;4.662;2023-08-24T03:43:53;7.63;;;4.63;;
76495;SDS011;65329;52.544;4.662;2023-08-24T03:46:20;7.47;;;4.78;;
76495;SDS011;65329;52.544;4.662;2023-08-24T03:48:47;5.55;;;4.38;;
76495;SDS011;65329;52.544;4.662;2023-08-24T03:51:15;6.57;;;4.45;;
76495;SDS011;65329;52.544;4.662;2023-08-24T03:53:42;8.65;;;5.18;;
76495;SDS011;65329;52.544;4.662;2023-08-24T03:56:10;9.85;;;4.85;;
76495;SDS011;65329;52.544;4.662;2023-08-24T03:58:38;6.65;;;4.55;;
76495;SDS011;65329;52.544;4.662;2023-08-24T04:01:09;8.25;;;5.10;;
76495;SDS011;65329;52.544;4.662;2023-08-24T04:03:37;6.47;;;4.28;;
76495;SDS011;65329;52.544;4.662;2023-08-24T04:06:05;9.00;;;5.57;;
76495;SDS011;65329;52.544;4.662;2023-08-24T04:08:32;7.72;;;4.90;;
76495;SDS011;65329;52.544;4.662;2023-08-24T04:11:00;7.63;;;5.38;;
76495;SDS011;65329;52.544;4.662;2023-08-24T04:13:30;7.78;;;5.43;;
76495;SDS011;65329;52.544;4.662;2023-08-24T04:15:58;8.63;;;5.38;;
76495;SDS011;65329;52.544;4.662;2023-08-24T04:18:25;8.27;;;4.70;;
76495;SDS011;65329;52.544;4.662;2023-08-24T04:20:52;10.38;;;5.25;;
76495;SDS011;65329;52.544;4.662;2023-08-24T04:23:24;7.40;;;4.50;;
76495;SDS011;65329;52.544;4.662;2023-08-24T04:25:53;8.68;;;4.65;;
76495;SDS011;65329;52.544;4.662;2023-08-24T04:28:22;10.32;;;5.50;;
76495;SDS011;65329;52.544;4.662;2023-08-24T04:30:50;8.23;;;5.40;;
76495;SDS011;65329;52.544;4.662;2023-08-24T04:33:18;10.77;;;5.32;;
76495;SDS011;65329;52.544;4.662;2023-08-24T04:35:47;9.60;;;5.55;;
76495;SDS011;65329;52.544;4.662;2023-08-24T04:38:17;9.50;;;5.47;;
76495;SDS011;65329;52.544;4.662;2023-08-24T04:43:17;8.75;;;5.47;;
76495;SDS011;65329;52.544;4.662;2023-08-24T04:45:46;7.90;;;5.32;;
76495;SDS011;65329;52.544;4.662;2023-08-24T04:48:18;7.68;;;5.28;;
76495;SDS011;65329;52.544;4.662;2023-08-24T04:50:49;7.53;;;5.43;;
76495;SDS011;65329;52.544;4.662;2023-08-24T04:53:17;8.13;;;5.20;;
76495;SDS011;65329;52.544;4.662;2023-08-24T04:55:45;9.07;;;5.63;;
76495;SDS011;65329;52.544;4.662;2023-08-24T04:58:13;6.97;;;4.97;;
76495;SDS011;65329;52.544;4.662;2023-08-24T05:00:40;8.48;;;5.65;;
76495;SDS011;65329;52.544;4.662;2023-08-24T05:03:08;7.95;;;5.15;;
76495;SDS011;65329;52.544;4.662;2023-08-24T05:05:38;7.53;;;5.55;;
76495;SDS011;65329;52.544;4.662;2023-08-24T05:08:05;8.45;;;5.30;;
76495;SDS011;65329;52.544;4.662;2023-08-24T05:10:36;10.05;;;5.68;;
76495;SDS011;65329;52.544;4.662;2023-08-24T05:13:03;8.10;;;5.30;;
76495;SDS011;65329;52.544;4.662;2023-08-24T05:15:30;11.07;;;5.80;;
76495;SDS011;65329;52.544;4.662;2023-08-24T05:17:58;8.85;;;5.45;;
76495;SDS011;65329;52.544;4.662;2023-08-24T05:20:26;8.63;;;5.93;;
76495;SDS011;65329;52.544;4.662;2023-08-24T05:22:54;11.40;;;6.18;;
76495;SDS011;65329;52.544;4.662;2023-08-24T05:25:22;8.85;;;5.50;;
76495;SDS011;65329;52.544;4.662;2023-08-24T05:27:53;8.07;;;5.28;;
76495;SDS011;65329;52.544;4.662;2023-08-24T05:30:20;11.30;;;5.68;;
76495;SDS011;65329;52.544;4.662;2023-08-24T05:32:48;9.23;;;5.35;;
76495;SDS011;65329;52.544;4.662;2023-08-24T05:35:15;7.53;;;5.18;;
76495;SDS011;65329;52.544;4.662;2023-08-24T05:37:43;10.25;;;5.97;;
76495;SDS011;65329;52.544;4.662;2023-08-24T05:40:13;10.40;;;5.50;;
76495;SDS011;65329;52.544;4.662;2023-08-24T05:42:44;7.90;;;6.10;;
76495;SDS011;65329;52.544;4.662;2023-08-24T05:45:11;10.43;;;6.00;;
76495;SDS011;65329;52.544;4.662;2023-08-24T05:47:39;9.05;;;5.90;;
76495;SDS011;65329;52.544;4.662;2023-08-24T05:50:08;10.35;;;5.68;;
76495;SDS011;65329;52.544;4.662;2023-08-24T05:52:38;9.10;;;5.28;;
76495;SDS011;65329;52.544;4.662;2023-08-24T05:55:05;7.97;;;5.45;;
76495;SDS011;65329;52.544;4.662;2023-08-24T05:57:33;6.80;;;4.88;;
76495;SDS011;65329;52.544;4.662;2023-08-24T06:00:03;8.13;;;5.07;;
76495;SDS011;65329;52.544;4.662;2023-08-24T06:02:41;8.93;;;5.22;;
76495;SDS011;65329;52.544;4.662;2023-08-24T06:05:08;7.35;;;4.88;;
76495;SDS011;65329;52.544;4.662;2023-08-24T06:07:38;7.22;;;4.85;;
76495;SDS011;65329;52.544;4.662;2023-08-24T06:10:06;10.50;;;5.53;;
76495;SDS011;65329;52.544;4.662;2023-08-24T06:12:38;8.82;;;5.03;;
76495;SDS011;65329;52.544;4.662;2023-08-24T06:15:06;7.55;;;4.97;;
76495;SDS011;65329;52.544;4.662;2023-08-24T06:17:36;8.25;;;4.70;;
76495;SDS011;65329;52.544;4.662;2023-08-24T06:20:03;8.27;;;4.88;;
76495;SDS011;65329;52.544;4.662;2023-08-24T06:22:31;7.38;;;4.80;;
76495;SDS011;65329;52.544;4.662;2023-08-24T06:24:59;8.20;;;4.72;;
76495;SDS011;65329;52.544;4.662;2023-08-24T06:27:29;7.78;;;4.82;;
76495;SDS011;65329;52.544;4.662;2023-08-24T06:29:56;6.32;;;4.55;;
76495;SDS011;65329;52.544;4.662;2023-08-24T06:32:23;7.55;;;4.63;;
76495;SDS011;65329;52.544;4.662;2023-08-24T06:34:50;7.00;;;4.60;;
76495;SDS011;65329;52.544;4.662;2023-08-24T06:37:18;7.32;;;4.63;;
76495;SDS011;65329;52.544;4.662;2023-08-24T06:39:45;7.28;;;5.00;;
76495;SDS011;65329;52.544;4.662;2023-08-24T06:42:12;6.78;;;4.50;;
76495;SDS011;65329;52.544;4.662;2023-08-24T06:44:40;6.93;;;4.32;;
76495;SDS011;65329;52.544;4.662;2023-08-24T06:47:09;5.70;;;4.22;;
76495;SDS011;65329;52.544;4.662;2023-08-24T06:49:36;5.95;;;4.65;;
76495;SDS011;65329;52.544;4.662;2023-08-24T06:52:03;6.43;;;4.25;;
76495;SDS011;65329;52.544;4.662;2023-08-24T06:54:31;6.15;;;4.82;;
76495;SDS011;65329;52.544;4.662;2023-08-24T06:56:58;5.20;;;4.63;;
76495;SDS011;65329;52.544;4.662;2023-08-24T06:59:25;6.10;;;4.43;;
76495;SDS011;65329;52.544;4.662;2023-08-24T07:01:53;6.97;;;4.60;;
76495;SDS011;65329;52.544;4.662;2023-08-24T07:04:20;6.68;;;4.32;;
76495;SDS011;65329;52.544;4.662;2023-08-24T07:06:48;5.80;;;4.60;;
76495;SDS011;65329;52.544;4.662;2023-08-24T07:09:15;7.82;;;4.40;;
76495;SDS011;65329;52.544;4.662;2023-08-24T07:11:42;8.93;;;4.60;;
76495;SDS011;65329;52.544;4.662;2023-08-24T07:14:09;7.68;;;4.70;;
76495;SDS011;65329;52.544;4.662;2023-08-24T07:16:37;6.38;;;4.53;;
76495;SDS011;65329;52.544;4.662;2023-08-24T07:19:04;6.53;;;4.20;;
76495;SDS011;65329;52.544;4.662;2023-08-24T07:21:32;6.53;;;3.92;;
76495;SDS011;65329;52.544;4.662;2023-08-24T07:23:59;4.72;;;4.03;;
76495;SDS011;65329;52.544;4.662;2023-08-24T07:26:28;4.43;;;3.95;;
76495;SDS011;65329;52.544;4.662;2023-08-24T07:28:57;5.57;;;4.32;;
76495;SDS011;65329;52.544;4.662;2023-08-24T07:31:25;7.00;;;5.00;;
76495;SDS011;65329;52.544;4.662;2023-08-24T07:33:52;6.47;;;4.95;;
76495;SDS011;65329;52.544;4.662;2023-08-24T07:36:19;6.68;;;4.40;;
76495;SDS011;65329;52.544;4.662;2023-08-24T07:38:48;7.03;;;4.63;;
76495;SDS011;65329;52.544;4.662;2023-08-24T07:43:45;7.07;;;4.72;;
76495;SDS011;65329;52.544;4.662;2023-08-24T07:46:13;6.85;;;4.53;;
76495;SDS011;65329;52.544;4.662;2023-08-24T07:48:40;7.50;;;5.68;;
76495;SDS011;65329;52.544;4.662;2023-08-24T07:51:07;7.20;;;4.72;;
76495;SDS011;65329;52.544;4.662;2023-08-24T07:53:35;6.78;;;4.75;;
76495;SDS011;65329;52.544;4.662;2023-08-24T07:56:02;8.02;;;4.88;;
76495;SDS011;65329;52.544;4.662;2023-08-24T07:58:29;5.43;;;4.70;;
76495;SDS011;65329;52.544;4.662;2023-08-24T08:00:59;7.63;;;5.43;;
76495;SDS011;65329;52.544;4.662;2023-08-24T08:03:27;6.30;;;4.57;;
76495;SDS011;65329;52.544;4.662;2023-08-24T08:05:57;7.63;;;4.50;;
76495;SDS011;65329;52.544;4.662;2023-08-24T08:08:27;6.85;;;4.93;;
76495;SDS011;65329;52.544;4.662;2023-08-24T08:11:00;8.43;;;5.20;;
76495;SDS011;65329;52.544;4.662;2023-08-24T08:13:29;7.85;;;5.35;;
76495;SDS011;65329;52.544;4.662;2023-08-24T08:16:02;8.75;;;5.30;;
76495;SDS011;65329;52.544;4.662;2023-08-24T08:18:31;10.18;;;5.30;;
76495;SDS011;65329;52.544;4.662;2023-08-24T08:21:01;8.80;;;5.38;;
76495;SDS011;65329;52.544;4.662;2023-08-24T08:23:35;9.93;;;5.80;;
76495;SDS011;65329;52.544;4.662;2023-08-24T08:26:04;7.57;;;5.35;;
76495;SDS011;65329;52.544;4.662;2023-08-24T08:28:31;7.93;;;5.57;;
76495;SDS011;65329;52.544;4.662;2023-08-24T08:31:01;6.78;;;5.97;;
76495;SDS011;65329;52.544;4.662;2023-08-24T08:33:30;8.07;;;5.57;;
76495;SDS011;65329;52.544;4.662;2023-08-24T08:35:57;9.95;;;5.80;;
76495;SDS011;65329;52.544;4.662;2023-08-24T08:38:24;9.10;;;5.47;;
76495;SDS011;65329;52.544;4.662;2023-08-24T08:41:01;9.23;;;5.90;;
76495;SDS011;65329;52.544;4.662;2023-08-24T08:43:30;9.23;;;6.05;;
76495;SDS011;65329;52.544;4.662;2023-08-24T08:45:59;9.93;;;6.63;;
76495;SDS011;65329;52.544;4.662;2023-08-24T08:48:27;12.07;;;6.20;;
76495;SDS011;65329;52.544;4.662;2023-08-24T08:50:57;10.68;;;6.20;;
76495;SDS011;65329;52.544;4.662;2023-08-24T08:53:26;8.27;;;6.68;;
76495;SDS011;65329;52.544;4.662;2023-08-24T08:55:54;11.95;;;6.80;;
76495;SDS011;65329;52.544;4.662;2023-08-24T08:58:21;12.65;;;7.25;;
76495;SDS011;65329;52.544;4.662;2023-08-24T09:00:49;8.60;;;6.32;;
76495;SDS011;65329;52.544;4.662;2023-08-24T09:03:18;10.50;;;6.40;;
76495;SDS011;65329;52.544;4.662;2023-08-24T09:05:45;11.15;;;6.97;;
76495;SDS011;65329;52.544;4.662;2023-08-24T09:08:17;10.80;;;7.07;;
76495;SDS011;65329;52.544;4.662;2023-08-24T09:10:44;12.07;;;7.88;;
76495;SDS011;65329;52.544;4.662;2023-08-24T09:13:12;9.43;;;7.22;;
76495;SDS011;65329;52.544;4.662;2023-08-24T09:15:39;14.07;;;7.38;;
76495;SDS011;65329;52.544;4.662;2023-08-24T09:18:07;15.55;;;7.57;;
76495;SDS011;65329;52.544;4.662;2023-08-24T09:20:35;14.73;;;7.80;;
76495;SDS011;65329;52.544;4.662;2023-08-24T09:23:03;11.85;;;7.85;;
76495;SDS011;65329;52.544;4.662;2023-08-24T09:25:30;13.43;;;10.32;;
76495;SDS011;65329;52.544;4.662;2023-08-24T09:30:28;15.05;;;11.00;;
76495;SDS011;65329;52.544;4.662;2023-08-24T09:33:00;17.02;;;9.90;;
76495;SDS011;65329;52.544;4.662;2023-08-24T09:35:34;12.70;;;9.82;;
76495;SDS011;65329;52.544;4.662;2023-08-24T09:38:22;15.48;;;10.15;;
76495;SDS011;65329;52.544;4.662;2023-08-24T09:40:50;17.15;;;10.27;;
76495;SDS011;65329;52.544;4.662;2023-08-24T09:43:22;13.18;;;9.95;;
76495;SDS011;65329;52.544;4.662;2023-08-24T09:45:54;14.13;;;10.15;;
76495;SDS011;65329;52.544;4.662;2023-08-24T09:48:22;14.15;;;9.50;;
76495;SDS011;65329;52.544;4.662;2023-08-24T09:50:54;14.43;;;10.80;;
76495;SDS011;65329;52.544;4.662;2023-08-24T09:53:23;16.38;;;10.65;;
76495;SDS011;65329;52.544;4.662;2023-08-24T09:55:55;14.85;;;11.02;;
76495;SDS011;65329;52.544;4.662;2023-08-24T09:58:27;16.65;;;10.48;;
76495;SDS011;65329;52.544;4.662;2023-08-24T10:00:55;16.00;;;10.93;;
76495;SDS011;65329;52.544;4.662;2023-08-24T10:03:26;14.43;;;10.35;;
76495;SDS011;65329;52.544;4.662;2023-08-24T10:05:57;16.23;;;10.55;;
76495;SDS011;65329;52.544;4.662;2023-08-24T10:08:39;15.73;;;9.82;;
76495;SDS011;65329;52.544;4.662;2023-08-24T10:11:10;13.57;;;9.68;;
76495;SDS011;65329;52.544;4.662;2023-08-24T10:16:21;13.70;;;10.20;;
76495;SDS011;65329;52.544;4.662;2023-08-24T10:18:50;18.00;;;11.00;;
76495;SDS011;65329;52.544;4.662;2023-08-24T10:21:18;16.73;;;11.18;;
76495;SDS011;65329;52.544;4.662;2023-08-24T10:23:46;18.92;;;11.48;;
76495;SDS011;65329;52.544;4.662;2023-08-24T10:26:14;16.25;;;11.77;;
76495;SDS011;65329;52.544;4.662;2023-08-24T10:28:42;21.85;;;12.05;;
76495;SDS011;65329;52.544;4.662;2023-08-24T10:31:11;18.90;;;11.95;;
76495;SDS011;65329;52.544;4.662;2023-08-24T10:33:38;17.30;;;11.93;;
76495;SDS011;65329;52.544;4.662;2023-08-24T10:36:06;18.23;;;11.88;;
76495;SDS011;65329;52.544;4.662;2023-08-24T10:38:35;16.98;;;11.30;;
76495;SDS011;65329;52.544;4.662;2023-08-24T10:41:09;17.92;;;11.98;;
76495;SDS011;65329;52.544;4.662;2023-08-24T10:43:41;20.65;;;12.73;;
76495;SDS011;65329;52.544;4.662;2023-08-24T10:46:15;17.65;;;12.93;;
76495;SDS011;65329;52.544;4.662;2023-08-24T10:56:17;18.92;;;12.38;;
76495;SDS011;65329;52.544;4.662;2023-08-24T10:58:46;18.23;;;12.43;;
76495;SDS011;65329;52.544;4.662;2023-08-24T11:01:34;19.20;;;12.23;;
76495;SDS011;65329;52.544;4.662;2023-08-24T11:04:02;17.52;;;12.18;;
76495;SDS011;65329;52.544;4.662;2023-08-24T11:06:32;14.13;;;10.50;;
76495;SDS011;65329;52.544;4.662;2023-08-24T11:09:08;15.57;;;10.70;;
76495;SDS011;65329;52.544;4.662;2023-08-24T11:14:29;15.88;;;11.43;;
76495;SDS011;65329;52.544;4.662;2023-08-24T11:16:58;17.40;;;11.10;;
76495;SDS011;65329;52.544;4.662;2023-08-24T11:19:49;16.15;;;10.93;;
76495;SDS011;65329;52.544;4.662;2023-08-24T11:22:18;15.82;;;11.38;;
76495;SDS011;65329;52.544;4.662;2023-08-24T11:24:45;15.18;;;10.50;;
76495;SDS011;65329;52.544;4.662;2023-08-24T11:27:12;16.02;;;10.77;;
76495;SDS011;65329;52.544;4.662;2023-08-24T11:29:42;13.82;;;10.90;;
76495;SDS011;65329;52.544;4.662;2023-08-24T11:32:10;14.45;;;9.98;;
76495;SDS011;65329;52.544;4.662;2023-08-24T11:34:37;16.70;;;10.98;;
76495;SDS011;65329;52.544;4.662;2023-08-24T11:37:05;13.57;;;9.85;;
76495;SDS011;65329;52.544;4.662;2023-08-24T11:39:32;11.95;;;9.80;;
76495;SDS011;65329;52.544;4.662;2023-08-24T11:42:04;14.43;;;10.23;;
76495;SDS011;65329;52.544;4.662;2023-08-24T11:44:45;13.68;;;10.15;;
76495;SDS011;65329;52.544;4.662;2023-08-24T11:47:13;16.42;;;10.13;;
76495;SDS011;65329;52.544;4.662;2023-08-24T11:49:40;11.77;;;8.95;;
76495;SDS011;65329;52.544;4.662;2023-08-24T11:52:08;12.63;;;9.20;;
76495;SDS011;65329;52.544;4.662;2023-08-24T11:54:35;15.02;;;10.20;;
76495;SDS011;65329;52.544;4.662;2023-08-24T11:57:06;12.15;;;10.35;;
76495;SDS011;65329;52.544;4.662;2023-08-24T11:59:38;10.85;;;9.10;;
76495;SDS011;65329;52.544;4.662;2023-08-24T12:02:06;14.18;;;9.98;;
76495;SDS011;65329;52.544;4.662;2023-08-24T12:04:39;13.82;;;9.90;;
76495;SDS011;65329;52.544;4.662;2023-08-24T12:07:10;13.32;;;10.40;;
76495;SDS011;65329;52.544;4.662;2023-08-24T12:09:44;13.45;;;10.57;;
76495;SDS011;65329;52.544;4.662;2023-08-24T12:14:43;11.13;;;8.07;;
76495;SDS011;65329;52.544;4.662;2023-08-24T12:17:11;10.60;;;7.72;;
76495;SDS011;65329;52.544;4.662;2023-08-24T12:22:25;10.95;;;7.90;;
76495;SDS011;65329;52.544;4.662;2023-08-24T12:24:53;8.85;;;6.80;;
76495;SDS011;65329;52.544;4.662;2023-08-24T12:27:20;9.07;;;7.38;;
76495;SDS011;65329;52.544;4.662;2023-08-24T12:29:50;9.95;;;7.13;;
76495;SDS011;65329;52.544;4.662;2023-08-24T12:32:18;8.57;;;6.82;;
76495;SDS011;65329;52.544;4.662;2023-08-24T12:34:46;8.85;;;6.85;;
76495;SDS011;65329;52.544;4.662;2023-08-24T12:37:14;9.73;;;7.30;;
76495;SDS011;65329;52.544;4.662;2023-08-24T12:39:41;8.02;;;6.75;;
76495;SDS011;65329;52.544;4.662;2023-08-24T12:42:08;7.90;;;6.57;;
76495;SDS011;65329;52.544;4.662;2023-08-24T12:44:35;9.50;;;6.13;;
76495;SDS011;65329;52.544;4.662;2023-08-24T12:47:03;9.60;;;6.97;;
76495;SDS011;65329;52.544;4.662;2023-08-24T12:49:30;7.55;;;6.45;;
76495;SDS011;65329;52.544;4.662;2023-08-24T12:51:58;9.00;;;6.57;;
76495;SDS011;65329;52.544;4.662;2023-08-24T12:54:25;9.45;;;8.38;;
76495;SDS011;65329;52.544;4.662;2023-08-24T12:56:52;9.85;;;8.85;;
76495;SDS011;65329;52.544;4.662;2023-08-24T12:59:19;9.77;;;8.38;;
76495;SDS011;65329;52.544;4.662;2023-08-24T13:01:47;12.55;;;8.98;;
76495;SDS011;65329;52.544;4.662;2023-08-24T13:04:14;13.10;;;10.48;;
76495;SDS011;65329;52.544;4.662;2023-08-24T13:06:41;12.98;;;9.68;;
76495;SDS011;65329;52.544;4.662;2023-08-24T13:09:08;14.05;;;10.23;;
76495;SDS011;65329;52.544;4.662;2023-08-24T13:11:36;15.25;;;11.15;;
76495;SDS011;65329;52.544;4.662;2023-08-24T13:14:03;14.00;;;11.02;;
76495;SDS011;65329;52.544;4.662;2023-08-24T13:16:31;12.07;;;10.80;;
76495;SDS011;65329;52.544;4.662;2023-08-24T13:19:00;12.65;;;10.75;;
76495;SDS011;65329;52.544;4.662;2023-08-24T13:21:27;15.15;;;10.18;;
76495;SDS011;65329;52.544;4.662;2023-08-24T13:23:54;12.90;;;10.55;;
76495;SDS011;65329;52.544;4.662;2023-08-24T13:26:23;11.77;;;10.38;;
76495;SDS011;65329;52.544;4.662;2023-08-24T13:28:50;12.23;;;10.18;;
76495;SDS011;65329;52.544;4.662;2023-08-24T13:31:20;11.68;;;10.43;;
76495;SDS011;65329;52.544;4.662;2023-08-24T13:33:47;13.07;;;10.80;;
76495;SDS011;65329;52.544;4.662;2023-08-24T13:36:15;14.10;;;10.60;;
76495;SDS011;65329;52.544;4.662;2023-08-24T13:38:43;13.23;;;10.68;;
76495;SDS011;65329;52.544;4.662;2023-08-24T13:41:13;12.75;;;10.52;;
76495;SDS011;65329;52.544;4.662;2023-08-24T13:43:42;14.55;;;10.45;;
76495;SDS011;65329;52.544;4.662;2023-08-24T13:46:09;12.90;;;10.60;;
76495;SDS011;65329;52.544;4.662;2023-08-24T13:48:37;14.63;;;10.57;;
76495;SDS011;65329;52.544;4.662;2023-08-24T13:51:07;14.65;;;10.73;;
76495;SDS011;65329;52.544;4.662;2023-08-24T13:53:35;12.02;;;10.25;;
76495;SDS011;65329;52.544;4.662;2023-08-24T13:56:02;14.23;;;10.50;;
76495;SDS011;65329;52.544;4.662;2023-08-24T13:58:30;15.45;;;11.73;;
76495;SDS011;65329;52.544;4.662;2023-08-24T14:00:58;14.50;;;12.40;;
76495;SDS011;65329;52.544;4.662;2023-08-24T14:03:26;14.82;;;11.55;;
76495;SDS011;65329;52.544;4.662;2023-08-24T14:05:56;14.27;;;10.82;;
76495;SDS011;65329;52.544;4.662;2023-08-24T14:08:24;17.67;;;11.63;;
76495;SDS011;65329;52.544;4.662;2023-08-24T14:10:54;13.90;;;11.20;;
76495;SDS011;65329;52.544;4.662;2023-08-24T14:13:21;14.55;;;11.95;;
76495;SDS011;65329;52.544;4.662;2023-08-24T14:15:50;13.95;;;10.55;;
76495;SDS011;65329;52.544;4.662;2023-08-24T14:18:18;14.27;;;12.00;;
76495;SDS011;65329;52.544;4.662;2023-08-24T14:20:48;16.40;;;11.50;;
76495;SDS011;65329;52.544;4.662;2023-08-24T14:23:15;13.18;;;9.88;;
76495;SDS011;65329;52.544;4.662;2023-08-24T14:25:42;13.48;;;8.63;;
76495;SDS011;65329;52.544;4.662;2023-08-24T14:28:10;10.32;;;8.13;;
76495;SDS011;65329;52.544;4.662;2023-08-24T14:30:38;10.20;;;8.10;;
76495;SDS011;65329;52.544;4.662;2023-08-24T14:33:09;10.35;;;8.48;;
76495;SDS011;65329;52.544;4.662;2023-08-24T14:35:38;12.05;;;8.52;;
76495;SDS011;65329;52.544;4.662;2023-08-24T14:38:05;10.80;;;8.88;;
76495;SDS011;65329;52.544;4.662;2023-08-24T14:40:32;12.38;;;8.77;;
76495;SDS011;65329;52.544;4.662;2023-08-24T14:43:04;10.73;;;8.65;;
76495;SDS011;65329;52.544;4.662;2023-08-24T14:45:32;13.13;;;10.13;;
76495;SDS011;65329;52.544;4.662;2023-08-24T14:47:59;13.40;;;8.98;;
76495;SDS011;65329;52.544;4.662;2023-08-24T14:50:26;12.90;;;9.35;;
76495;SDS011;65329;52.544;4.662;2023-08-24T14:52:53;11.88;;;9.60;;
76495;SDS011;65329;52.544;4.662;2023-08-24T14:55:20;12.15;;;9.45;;
76495;SDS011;65329;52.544;4.662;2023-08-24T14:57:49;15.45;;;10.27;;
76495;SDS011;65329;52.544;4.662;2023-08-24T15:00:20;11.98;;;9.40;;
76495;SDS011;65329;52.544;4.662;2023-08-24T15:02:47;12.18;;;9.50;;
76495;SDS011;65329;52.544;4.662;2023-08-24T15:05:14;10.82;;;8.90;;
76495;SDS011;65329;52.544;4.662;2023-08-24T15:07:47;10.85;;;8.82;;
76495;SDS011;65329;52.544;4.662;2023-08-24T15:10:16;12.10;;;9.30;;
76495;SDS011;65329;52.544;4.662;2023-08-24T15:12:45;9.85;;;8.48;;
76495;SDS011;65329;52.544;4.662;2023-08-24T15:15:13;11.15;;;8.75;;
76495;SDS011;65329;52.544;4.662;2023-08-24T15:17:45;11.48;;;8.88;;
76495;SDS011;65329;52.544;4.662;2023-08-24T15:20:12;13.65;;;9.45;;
76495;SDS011;65329;52.544;4.662;2023-08-24T15:22:40;11.90;;;9.80;;